createdAt,value
2018-03-23T00:01:09.708Z,2.70
2018-03-23T00:03:37.739Z,2.80
2018-03-23T00:06:05.772Z,2.80
2018-03-23T00:08:33.844Z,2.80
2018-03-23T00:11:01.867Z,2.80
2018-03-23T00:13:29.915Z,2.80
2018-03-23T00:15:57.976Z,2.80
2018-03-23T00:18:26.008Z,2.80
2018-03-23T00:20:54.053Z,2.80
2018-03-23T00:23:22.103Z,2.80
2018-03-23T00:25:50.932Z,2.70
2018-03-23T00:28:18.999Z,2.70
2018-03-23T00:30:47.032Z,2.80
2018-03-23T00:33:15.087Z,2.80
2018-03-23T00:35:43.128Z,2.80
2018-03-23T00:38:11.196Z,2.80
2018-03-23T00:40:39.237Z,2.80
2018-03-23T00:43:07.267Z,2.90
2018-03-23T00:45:35.316Z,2.80
2018-03-23T00:48:03.387Z,2.90
2018-03-23T00:50:31.440Z,2.80
2018-03-23T00:53:00.248Z,2.80
2018-03-23T00:55:29.064Z,2.80
2018-03-23T00:57:57.110Z,2.80
2018-03-23T01:00:25.437Z,2.80
2018-03-23T01:02:53.497Z,2.80
2018-03-23T01:05:21.534Z,2.80
2018-03-23T01:07:49.592Z,2.80
2018-03-23T01:10:17.640Z,2.90
2018-03-23T01:12:45.697Z,2.80
2018-03-23T01:15:13.736Z,2.90
2018-03-23T01:17:42.564Z,2.90
2018-03-23T01:20:10.609Z,2.90
2018-03-23T01:22:41.393Z,2.90
2018-03-23T01:25:10.184Z,2.90
2018-03-23T01:27:38.271Z,2.90
2018-03-23T01:30:07.065Z,2.90
2018-03-23T01:32:35.122Z,2.90
2018-03-23T01:35:03.162Z,2.90
2018-03-23T01:37:31.228Z,2.90
2018-03-23T01:39:59.279Z,2.90
2018-03-23T01:42:27.317Z,2.90
2018-03-23T01:44:55.372Z,2.90
2018-03-23T01:47:23.414Z,2.90
2018-03-23T01:49:51.472Z,2.90
2018-03-23T01:52:19.513Z,2.90
2018-03-23T01:54:48.340Z,2.90
2018-03-23T01:57:16.423Z,2.90
2018-03-23T01:59:45.221Z,3.00
2018-03-23T02:02:13.260Z,3.00
2018-03-23T02:04:41.321Z,3.00
2018-03-23T02:07:09.380Z,3.00
2018-03-23T02:09:37.429Z,3.00
2018-03-23T02:12:06.249Z,3.00
2018-03-23T02:14:34.288Z,3.00
2018-03-23T02:17:02.358Z,3.00
2018-03-23T02:19:30.397Z,3.00
2018-03-23T02:21:59.316Z,3.00
2018-03-23T02:24:27.376Z,3.00
2018-03-23T02:26:56.180Z,3.00
2018-03-23T02:29:25.015Z,3.00
2018-03-23T02:31:53.053Z,3.00
2018-03-23T02:34:21.098Z,3.00
2018-03-23T02:36:49.165Z,3.00
2018-03-23T02:39:17.204Z,3.00
2018-03-23T02:41:45.248Z,3.00
2018-03-23T02:44:13.315Z,3.00
2018-03-23T02:46:41.360Z,3.00
2018-03-23T02:49:10.198Z,3.10
2018-03-23T02:51:38.247Z,3.10
2018-03-23T02:54:07.077Z,3.00
2018-03-23T02:56:35.273Z,3.00
2018-03-23T02:59:03.308Z,3.00
2018-03-23T03:01:31.489Z,3.10
2018-03-23T03:03:59.476Z,3.10
2018-03-23T03:06:27.535Z,3.10
2018-03-23T03:08:55.589Z,3.00
2018-03-23T03:11:23.653Z,3.00
2018-03-23T03:13:52.472Z,3.10
2018-03-23T03:16:20.509Z,3.10
2018-03-23T03:18:49.328Z,3.10
2018-03-23T03:21:18.145Z,3.10
2018-03-23T03:23:47.004Z,3.10
2018-03-23T03:26:15.057Z,3.10
2018-03-23T03:28:43.095Z,3.10
2018-03-23T03:31:11.141Z,3.10
2018-03-23T03:33:39.201Z,3.20
2018-03-23T03:36:07.240Z,3.10
2018-03-23T03:38:36.061Z,3.20
2018-03-23T03:41:04.864Z,3.10
2018-03-23T03:43:33.688Z,3.10
2018-03-23T03:46:01.734Z,3.10
2018-03-23T03:48:29.792Z,3.10
2018-03-23T03:50:57.833Z,3.10
2018-03-23T03:53:25.888Z,3.10
2018-03-23T03:55:53.944Z,3.20
2018-03-23T03:58:21.987Z,3.20
2018-03-23T04:00:50.804Z,3.20
2018-03-23T04:03:18.844Z,3.20
2018-03-23T04:05:46.893Z,3.20
2018-03-23T04:08:15.033Z,3.20
2018-03-23T04:10:43.852Z,3.20
2018-03-23T04:13:11.905Z,3.20
2018-03-23T04:15:39.973Z,3.20
2018-03-23T04:18:08.014Z,3.20
2018-03-23T04:20:36.112Z,3.20
2018-03-23T04:23:04.164Z,3.20
2018-03-23T04:25:32.991Z,3.20
2018-03-23T04:28:01.034Z,3.20
2018-03-23T04:30:29.853Z,3.20
2018-03-23T04:32:58.688Z,3.20
2018-03-23T04:35:26.733Z,3.20
2018-03-23T04:37:55.536Z,3.20
2018-03-23T04:40:24.361Z,3.20
2018-03-23T04:42:52.420Z,3.20
2018-03-23T04:45:21.224Z,3.20
2018-03-23T04:47:50.129Z,3.20
2018-03-23T04:50:18.131Z,3.30
2018-03-23T04:52:46.176Z,3.30
2018-03-23T04:55:14.232Z,3.20
2018-03-23T04:57:42.344Z,3.30
2018-03-23T05:00:10.411Z,3.30
2018-03-23T05:02:38.452Z,3.30
2018-03-23T05:05:06.506Z,3.30
2018-03-23T05:07:35.316Z,3.30
2018-03-23T05:10:04.136Z,3.30
2018-03-23T05:12:32.193Z,3.30
2018-03-23T05:15:00.310Z,3.30
2018-03-23T05:17:28.360Z,3.20
2018-03-23T05:19:57.168Z,3.30
2018-03-23T05:22:26.000Z,3.30
2018-03-23T05:24:54.029Z,3.30
2018-03-23T05:27:22.088Z,3.30
2018-03-23T05:29:50.145Z,3.30
2018-03-23T05:32:18.185Z,3.20
2018-03-23T05:34:46.261Z,3.30
2018-03-23T05:37:14.302Z,3.30
2018-03-23T05:39:42.336Z,3.30
2018-03-23T05:42:10.397Z,3.20
2018-03-23T05:44:38.457Z,3.20
2018-03-23T05:47:06.537Z,3.30
2018-03-23T05:49:34.577Z,3.30
2018-03-23T05:52:02.650Z,3.30
2018-03-23T05:54:32.512Z,3.30
2018-03-23T05:57:01.338Z,3.30
2018-03-23T05:59:29.388Z,3.30
2018-03-23T06:01:57.436Z,3.30
2018-03-23T06:04:25.510Z,3.20
2018-03-23T06:06:53.556Z,3.30
2018-03-23T06:09:22.361Z,3.40
2018-03-23T06:11:51.196Z,3.30
2018-03-23T06:14:19.258Z,3.30
2018-03-23T06:16:47.301Z,3.30
2018-03-23T06:19:15.360Z,3.30
2018-03-23T06:21:43.402Z,3.30
2018-03-23T06:24:11.456Z,3.40
2018-03-23T06:26:39.497Z,3.40
2018-03-23T06:29:07.553Z,3.40
2018-03-23T06:31:35.653Z,3.40
2018-03-23T06:34:03.709Z,3.40
2018-03-23T06:36:32.538Z,3.40
2018-03-23T06:39:00.596Z,3.40
2018-03-23T06:41:29.414Z,3.40
2018-03-23T06:43:58.220Z,3.40
2018-03-23T06:46:26.304Z,3.40
2018-03-23T06:48:54.357Z,3.50
2018-03-23T06:51:22.424Z,3.50
2018-03-23T06:53:50.517Z,3.50
2018-03-23T06:56:18.572Z,3.50
2018-03-23T06:58:46.633Z,3.50
2018-03-23T07:01:14.690Z,3.50
2018-03-23T07:03:42.754Z,3.50
2018-03-23T07:06:10.818Z,3.50
2018-03-23T07:08:38.870Z,3.40
2018-03-23T07:11:06.900Z,3.50
2018-03-23T07:13:34.965Z,3.50
2018-03-23T07:16:03.000Z,3.50
2018-03-23T07:18:31.822Z,3.50
2018-03-23T07:20:59.860Z,3.50
2018-03-23T07:23:27.916Z,3.50
2018-03-23T07:25:55.973Z,3.60
2018-03-23T07:28:24.012Z,3.50
2018-03-23T07:30:52.053Z,3.60
2018-03-23T07:33:20.115Z,3.60
2018-03-23T07:35:49.164Z,3.60
2018-03-23T07:38:17.222Z,3.60
2018-03-23T07:40:45.277Z,3.70
2018-03-23T07:43:14.164Z,3.70
2018-03-23T07:45:42.224Z,3.60
2018-03-23T07:48:10.261Z,3.60
2018-03-23T07:50:39.080Z,3.70
2018-03-23T07:53:07.136Z,3.60
2018-03-23T07:55:35.952Z,3.70
2018-03-23T07:58:03.992Z,3.60
2018-03-23T08:00:32.085Z,3.60
2018-03-23T08:03:00.128Z,3.70
2018-03-23T08:05:28.192Z,3.80
2018-03-23T08:07:56.230Z,3.70
2018-03-23T08:10:24.268Z,3.80
2018-03-23T08:12:52.325Z,3.70
2018-03-23T08:15:21.133Z,3.70
2018-03-23T08:17:50.082Z,3.70
2018-03-23T08:20:18.157Z,3.70
2018-03-23T08:22:46.216Z,3.70
2018-03-23T08:25:15.018Z,3.70
2018-03-23T08:27:43.844Z,3.70
2018-03-23T08:30:12.015Z,3.70
2018-03-23T08:32:40.097Z,3.80
2018-03-23T08:35:08.143Z,3.80
2018-03-23T08:37:36.212Z,3.70
2018-03-23T08:40:04.258Z,3.80
2018-03-23T08:42:32.325Z,3.80
2018-03-23T08:45:01.156Z,3.80
2018-03-23T08:47:29.172Z,3.70
2018-03-23T08:49:57.224Z,3.80
2018-03-23T08:52:25.286Z,3.80
2018-03-23T08:54:54.097Z,3.70
2018-03-23T08:57:22.140Z,3.70
2018-03-23T08:59:50.205Z,3.80
2018-03-23T09:02:18.245Z,3.80
2018-03-23T09:04:46.284Z,3.80
2018-03-23T09:07:14.353Z,3.80
2018-03-23T09:09:42.412Z,3.90
2018-03-23T09:12:10.449Z,3.90
2018-03-23T09:14:38.513Z,3.90
2018-03-23T09:17:06.561Z,3.90
2018-03-23T09:19:34.596Z,3.90
2018-03-23T09:22:02.657Z,4.00
2018-03-23T09:24:30.709Z,4.00
2018-03-23T09:26:58.770Z,3.90
2018-03-23T09:29:27.572Z,3.90
2018-03-23T09:31:56.393Z,4.00
2018-03-23T09:34:25.220Z,4.10
2018-03-23T09:36:53.266Z,4.10
2018-03-23T09:39:21.304Z,4.20
2018-03-23T09:41:49.426Z,4.10
2018-03-23T09:44:17.529Z,4.20
2018-03-23T09:46:45.573Z,4.20
2018-03-23T09:49:13.625Z,4.20
2018-03-23T09:51:41.685Z,4.30
2018-03-23T09:54:09.749Z,4.40
2018-03-23T09:56:38.576Z,4.60
2018-03-23T09:59:06.636Z,4.60
2018-03-23T10:01:35.441Z,4.80
2018-03-23T10:04:04.315Z,4.80
2018-03-23T10:06:32.469Z,4.80
2018-03-23T10:09:00.533Z,4.80
2018-03-23T10:11:28.628Z,4.80
2018-03-23T10:13:56.656Z,4.90
2018-03-23T10:16:26.205Z,4.80
2018-03-23T10:18:55.025Z,4.80
2018-03-23T10:21:23.062Z,4.70
2018-03-23T10:23:51.589Z,4.80
2018-03-23T10:26:19.628Z,4.80
2018-03-23T10:28:47.677Z,4.90
2018-03-23T10:31:15.709Z,5.00
2018-03-23T10:33:43.764Z,5.00
2018-03-23T10:38:45.334Z,5.10
2018-03-23T10:41:13.390Z,5.20
2018-03-23T10:43:42.216Z,5.40
2018-03-23T10:46:10.259Z,5.40
2018-03-23T10:48:38.300Z,5.50
2018-03-23T10:51:06.359Z,5.60
2018-03-23T10:53:34.468Z,5.60
2018-03-23T10:56:03.975Z,5.60
2018-03-23T10:58:32.017Z,5.60
2018-03-23T11:01:05.632Z,5.60
2018-03-23T11:03:34.445Z,5.50
2018-03-23T11:06:03.283Z,5.60
2018-03-23T11:08:31.328Z,5.60
2018-03-23T11:11:00.136Z,5.70
2018-03-23T11:13:28.966Z,5.80
2018-03-23T11:15:57.008Z,5.80
2018-03-23T11:18:25.138Z,5.90
2018-03-23T11:20:53.190Z,6.10
2018-03-23T11:23:21.996Z,6.40
2018-03-23T11:25:50.804Z,6.40
2018-03-23T11:28:19.629Z,6.60
2018-03-23T11:30:47.664Z,6.60
2018-03-23T11:33:17.224Z,6.90
2018-03-23T11:35:45.269Z,6.90
2018-03-23T11:38:14.080Z,6.90
2018-03-23T11:40:42.905Z,6.90
2018-03-23T11:43:10.948Z,6.80
2018-03-23T11:45:39.000Z,6.70
2018-03-23T11:48:07.069Z,6.80
2018-03-23T11:50:35.104Z,6.80
2018-03-23T11:53:03.166Z,6.80
2018-03-23T11:55:31.213Z,7.00
2018-03-23T11:57:59.255Z,7.10
2018-03-23T12:00:27.323Z,7.20
2018-03-23T12:02:55.377Z,7.30
2018-03-23T12:05:23.432Z,7.40
2018-03-23T12:07:52.303Z,7.60
2018-03-23T12:10:20.342Z,7.50
2018-03-23T12:12:48.380Z,7.50
2018-03-23T12:15:16.432Z,7.50
2018-03-23T12:17:44.473Z,7.50
2018-03-23T12:20:13.300Z,7.40
2018-03-23T12:22:41.358Z,7.30
2018-03-23T12:25:10.168Z,7.20
2018-03-23T12:27:38.994Z,7.20
2018-03-23T12:30:07.040Z,7.20
2018-03-23T12:32:35.864Z,7.10
2018-03-23T12:35:03.909Z,7.10
2018-03-23T12:37:31.969Z,7.10
2018-03-23T12:40:00.016Z,7.10
2018-03-23T12:42:28.062Z,7.20
2018-03-23T12:44:56.112Z,7.10
2018-03-23T12:47:24.144Z,7.10
2018-03-23T12:49:52.988Z,7.40
2018-03-23T12:52:21.025Z,7.40
2018-03-23T12:54:49.080Z,7.40
2018-03-23T12:57:17.119Z,7.40
2018-03-23T12:59:45.173Z,7.40
2018-03-23T13:02:13.209Z,7.30
2018-03-23T13:04:41.261Z,7.30
2018-03-23T13:07:10.093Z,7.10
2018-03-23T13:09:38.128Z,7.10
2018-03-23T13:12:06.186Z,7.10
2018-03-23T13:14:34.248Z,7.10
2018-03-23T13:17:02.345Z,7.10
2018-03-23T13:19:31.104Z,7.10
2018-03-23T13:21:59.928Z,7.00
2018-03-23T13:24:28.013Z,7.10
2018-03-23T13:26:56.068Z,7.00
2018-03-23T13:29:24.873Z,7.10
2018-03-23T13:31:53.726Z,7.20
2018-03-23T13:34:21.766Z,7.20
2018-03-23T13:36:50.588Z,7.10
2018-03-23T13:39:18.624Z,7.10
2018-03-23T13:41:46.665Z,7.10
2018-03-23T13:44:14.715Z,7.10
2018-03-23T13:46:43.538Z,7.00
2018-03-23T13:49:11.620Z,7.00
2018-03-23T13:51:39.689Z,7.10
2018-03-23T13:54:08.672Z,7.10
2018-03-23T13:56:38.233Z,7.10
2018-03-23T13:59:11.977Z,7.00
2018-03-23T14:01:41.778Z,6.90
2018-03-23T14:04:09.813Z,6.80
2018-03-23T14:06:38.640Z,6.90
2018-03-23T14:09:07.440Z,6.90
2018-03-23T14:11:36.275Z,7.00
2018-03-23T14:14:04.304Z,7.00
2018-03-23T14:16:33.878Z,6.90
2018-03-23T14:19:01.912Z,6.90
2018-03-23T14:21:31.460Z,7.10
2018-03-23T14:23:59.517Z,7.10
2018-03-23T14:26:27.608Z,7.10
2018-03-23T14:28:56.520Z,6.90
2018-03-23T14:31:24.481Z,6.90
2018-03-23T14:33:52.524Z,6.90
2018-03-23T14:36:20.585Z,6.90
2018-03-23T14:38:48.619Z,7.00
2018-03-23T14:41:16.683Z,6.90
2018-03-23T14:43:44.716Z,7.00
2018-03-23T14:46:13.536Z,7.10
2018-03-23T14:48:41.574Z,7.00
2018-03-23T14:51:09.629Z,7.20
2018-03-23T14:53:37.710Z,7.20
2018-03-23T14:56:05.754Z,7.20
2018-03-23T14:58:39.471Z,7.20
2018-03-23T15:01:07.528Z,7.30
2018-03-23T15:03:35.564Z,7.20
2018-03-23T15:06:03.624Z,7.40
2018-03-23T15:08:32.428Z,7.20
2018-03-23T15:11:01.256Z,7.30
2018-03-23T15:13:29.301Z,7.20
2018-03-23T15:15:57.554Z,7.20
2018-03-23T15:18:25.617Z,7.30
2018-03-23T15:20:53.656Z,7.20
2018-03-23T15:23:21.712Z,7.30
2018-03-23T15:25:49.752Z,7.20
2018-03-23T15:28:18.591Z,7.10
2018-03-23T15:30:46.636Z,7.10
2018-03-23T15:33:15.440Z,7.00
2018-03-23T15:35:44.261Z,7.00
2018-03-23T15:38:12.349Z,7.00
2018-03-23T15:40:40.403Z,6.90
2018-03-23T15:43:09.228Z,7.00
2018-03-23T15:45:37.304Z,7.00
2018-03-23T15:48:05.348Z,7.00
2018-03-23T15:50:33.397Z,7.00
2018-03-23T15:53:01.473Z,6.90
2018-03-23T15:55:29.519Z,6.90
2018-03-23T15:57:57.598Z,6.90
2018-03-23T16:00:26.428Z,6.90
2018-03-23T16:02:54.484Z,6.90
2018-03-23T16:05:24.029Z,6.90
2018-03-23T16:07:52.851Z,7.00
2018-03-23T16:10:20.899Z,6.90
2018-03-23T16:12:48.937Z,7.00
2018-03-23T16:15:16.986Z,7.00
2018-03-23T16:17:45.797Z,6.90
2018-03-23T16:20:13.845Z,6.90
2018-03-23T16:22:43.401Z,6.80
2018-03-23T16:25:11.446Z,6.90
2018-03-23T16:27:39.497Z,6.80
2018-03-23T16:30:07.561Z,6.80
2018-03-23T16:32:35.592Z,6.80
2018-03-23T16:35:03.640Z,6.90
2018-03-23T16:37:31.685Z,6.80
2018-03-23T16:40:00.729Z,6.80
2018-03-23T16:42:28.768Z,6.70
2018-03-23T16:44:57.601Z,6.70
2018-03-23T16:47:25.640Z,6.70
2018-03-23T16:49:55.194Z,6.70
2018-03-23T16:52:23.998Z,6.70
2018-03-23T16:54:52.036Z,6.60
2018-03-23T16:57:20.176Z,6.70
2018-03-23T16:59:48.221Z,6.60
2018-03-23T17:02:17.044Z,6.60
2018-03-23T17:04:45.868Z,6.60
2018-03-23T17:07:13.908Z,6.60
2018-03-23T17:09:41.950Z,6.60
2018-03-23T17:12:10.010Z,6.50
2018-03-23T17:14:38.066Z,6.50
2018-03-23T17:17:06.873Z,6.30
2018-03-23T17:19:35.700Z,6.30
2018-03-23T17:22:03.732Z,6.30
2018-03-23T17:24:31.776Z,6.20
2018-03-23T17:27:00.017Z,6.20
2018-03-23T17:29:29.573Z,6.10
2018-03-23T17:31:57.642Z,6.10
2018-03-23T17:34:26.443Z,6.10
2018-03-23T17:36:55.248Z,6.00
2018-03-23T17:39:24.075Z,5.90
2018-03-23T17:41:52.121Z,6.00
2018-03-23T17:44:21.690Z,5.80
2018-03-23T17:46:49.732Z,5.80
2018-03-23T17:49:18.552Z,5.80
2018-03-23T17:51:47.365Z,5.80
2018-03-23T17:54:16.172Z,5.70
2018-03-23T17:56:44.232Z,5.70
2018-03-23T17:59:13.037Z,5.60
2018-03-23T18:01:41.869Z,5.60
2018-03-23T18:04:09.911Z,5.60
2018-03-23T18:06:37.981Z,5.60
2018-03-23T18:09:06.113Z,5.50
2018-03-23T18:11:34.168Z,5.50
2018-03-23T18:14:02.997Z,5.50
2018-03-23T18:16:31.053Z,5.50
2018-03-23T18:18:59.865Z,5.40
2018-03-23T18:21:28.684Z,5.40
2018-03-23T18:23:57.042Z,5.40
2018-03-23T18:26:25.870Z,5.30
2018-03-23T18:28:54.728Z,5.30
2018-03-23T18:31:22.749Z,5.30
2018-03-23T18:33:51.576Z,5.30
2018-03-23T18:36:19.616Z,5.30
2018-03-23T18:38:47.673Z,5.30
2018-03-23T18:41:15.713Z,5.30
2018-03-23T18:43:44.529Z,5.30
2018-03-23T18:46:12.589Z,5.20
2018-03-23T18:48:41.385Z,5.30
2018-03-23T18:51:10.209Z,5.20
2018-03-23T18:53:39.009Z,5.20
2018-03-23T18:56:07.091Z,5.20
2018-03-23T18:58:35.889Z,5.20
2018-03-23T19:01:04.710Z,5.20
2018-03-23T19:03:33.512Z,5.20
2018-03-23T19:06:01.563Z,5.20
2018-03-23T19:08:30.388Z,5.10
2018-03-23T19:10:58.432Z,5.10
2018-03-23T19:13:26.917Z,5.10
2018-03-23T19:15:55.113Z,5.10
2018-03-23T19:18:23.156Z,5.10
2018-03-23T19:20:51.208Z,5.10
2018-03-23T19:23:20.033Z,5.00
2018-03-23T19:25:48.077Z,5.00
2018-03-23T19:28:16.128Z,5.00
2018-03-23T19:30:44.170Z,5.00
2018-03-23T19:33:13.002Z,4.90
2018-03-23T19:35:41.041Z,4.90
2018-03-23T19:38:09.853Z,4.90
2018-03-23T19:40:38.670Z,4.80
2018-03-23T19:43:06.726Z,4.80
2018-03-23T19:45:35.546Z,4.80
2018-03-23T19:48:04.397Z,4.80
2018-03-23T19:50:32.456Z,4.70
2018-03-23T19:53:00.505Z,4.70
2018-03-23T19:55:29.308Z,4.70
2018-03-23T19:57:58.135Z,4.70
2018-03-23T20:00:26.169Z,4.70
2018-03-23T20:02:54.229Z,4.70
2018-03-23T20:05:22.277Z,4.70
2018-03-23T20:07:51.117Z,4.60
2018-03-23T20:10:19.141Z,4.60
2018-03-23T20:12:47.178Z,4.60
2018-03-23T20:15:15.248Z,4.60
2018-03-23T20:17:49.060Z,4.60
2018-03-23T20:20:22.760Z,4.50
2018-03-23T20:22:51.586Z,4.50
2018-03-23T20:25:19.628Z,4.50
2018-03-23T20:27:53.238Z,4.50
2018-03-23T20:30:21.337Z,4.50
2018-03-23T20:32:50.170Z,4.40
2018-03-23T20:35:18.221Z,4.40
2018-03-23T20:37:47.036Z,4.40
2018-03-23T20:40:15.864Z,4.30
2018-03-23T20:42:43.904Z,4.30
2018-03-23T20:45:11.974Z,4.30
2018-03-23T20:47:40.042Z,4.30
2018-03-23T20:50:08.098Z,4.30
2018-03-23T20:52:36.165Z,4.20
2018-03-23T20:55:04.969Z,4.20
2018-03-23T20:57:33.805Z,4.10
2018-03-23T21:00:01.854Z,4.10
2018-03-23T21:02:30.649Z,4.10
2018-03-23T21:04:59.474Z,4.00
2018-03-23T21:07:27.524Z,4.00
2018-03-23T21:09:56.349Z,4.00
2018-03-23T21:12:25.235Z,4.00
2018-03-23T21:14:53.268Z,4.00
2018-03-23T21:17:21.310Z,4.00
2018-03-23T21:19:50.133Z,4.00
2018-03-23T21:22:18.192Z,4.00
2018-03-23T21:24:47.001Z,4.00
2018-03-23T21:27:15.823Z,4.00
2018-03-23T21:29:43.872Z,4.00
2018-03-23T21:32:11.917Z,4.10
2018-03-23T21:34:39.973Z,4.10
2018-03-23T21:37:08.016Z,4.00
2018-03-23T21:39:36.063Z,4.00
2018-03-23T21:42:04.279Z,3.90
2018-03-23T21:44:32.321Z,3.80
2018-03-23T21:47:00.377Z,3.70
2018-03-23T21:49:29.196Z,3.40
2018-03-23T21:51:57.262Z,3.30
2018-03-23T21:54:26.109Z,3.10
2018-03-23T21:56:54.165Z,3.10
2018-03-23T21:59:22.212Z,3.00
2018-03-23T22:01:50.275Z,2.90
2018-03-23T22:04:18.325Z,2.80
2018-03-23T22:06:46.360Z,2.80
2018-03-23T22:09:14.417Z,2.80
2018-03-23T22:11:42.476Z,2.80
2018-03-23T22:14:10.517Z,2.70
2018-03-23T22:16:38.589Z,2.50
2018-03-23T22:19:06.628Z,2.30
2018-03-23T22:21:34.660Z,2.20
2018-03-23T22:24:02.732Z,2.10
2018-03-23T22:26:30.777Z,2.00
2018-03-23T22:28:58.817Z,1.90
2018-03-23T22:31:26.878Z,1.90
2018-03-23T22:33:54.921Z,1.80
2018-03-23T22:36:23.722Z,1.70
2018-03-23T22:38:52.553Z,1.80
2018-03-23T22:41:20.595Z,1.70
2018-03-23T22:43:48.628Z,2.00
2018-03-23T22:46:16.689Z,1.90
2018-03-23T22:48:44.732Z,1.80
2018-03-23T22:51:13.558Z,1.60
2018-03-23T22:53:42.359Z,1.50
2018-03-23T22:56:11.180Z,1.50
2018-03-23T22:58:39.221Z,1.50
2018-03-23T23:01:07.273Z,1.40
2018-03-23T23:03:35.334Z,1.40
2018-03-23T23:06:04.148Z,1.30
2018-03-23T23:08:32.184Z,1.30
2018-03-23T23:11:00.308Z,1.30
2018-03-23T23:13:28.400Z,1.20
2018-03-23T23:15:56.456Z,1.20
2018-03-23T23:18:25.288Z,1.50
2018-03-23T23:20:53.370Z,1.50
2018-03-23T23:23:21.408Z,1.90
2018-03-23T23:25:49.477Z,2.20
2018-03-23T23:28:17.525Z,2.40
2018-03-23T23:30:45.597Z,2.60
2018-03-23T23:33:13.638Z,2.60
2018-03-23T23:35:41.685Z,2.60
2018-03-23T23:38:09.740Z,2.70
2018-03-23T23:40:38.561Z,2.60
2018-03-23T23:43:06.603Z,2.60
2018-03-23T23:45:34.689Z,2.60
2018-03-23T23:48:02.697Z,2.60
2018-03-23T23:50:31.548Z,2.60
2018-03-23T23:52:59.667Z,2.60
2018-03-23T23:55:27.716Z,2.60
2018-03-23T23:57:55.762Z,2.60
